MET'MAP v2.0
soon released !

Expected late october,
this new version will be
more efficient, smarter,
and hosted on a brand new
server x3 powerfull...
...and still free !


Not compatible ?
Try the mobile version !

LOG IN : | Subscribe | Disclaimer | Who is Orbifly ? |
ICAO code :

TAF - EGEO Oban - 26 Jan 2020 00:50 UTC - Data Source NOAA   


- Airport Elevation : 20 ft
- IATA code : OBN
- No reported NOTAMs.


EGEO - Oban

Latest METAR recorded : 2015/08/11 08:20 EGEO 110820Z 30005KT 250V310 9999 SCT022 BKN040 12/11 Q1018
Expired Forecast.

Source NOAA


MET'MAP, your aeronautical weather chart ! - Copyright ORBIFLY December 2007

Programming & Development : Alexandra Zaïnal
Co-Developer : Marc-Olivier Méhu
Technical & hardware support : Manuel Goepfert
Concept & Financing : Baudouin d'Aumeries